createdAt,value
2018-06-02T00:02:01.514Z,7.90
2018-06-02T00:04:29.082Z,7.63
2018-06-02T00:06:56.663Z,6.97
2018-06-02T00:09:24.202Z,7.03
2018-06-02T00:11:51.733Z,7.20
2018-06-02T00:14:19.356Z,7.40
2018-06-02T00:16:46.900Z,7.73
2018-06-02T00:19:14.442Z,7.77
2018-06-02T00:21:41.984Z,7.90
2018-06-02T00:24:09.531Z,7.13
2018-06-02T00:26:37.100Z,7.97
2018-06-02T00:29:04.739Z,7.10
2018-06-02T00:31:32.321Z,7.67
2018-06-02T00:33:59.861Z,8.33
2018-06-02T00:36:27.464Z,7.73
2018-06-02T00:38:55.046Z,7.40
2018-06-02T00:41:22.590Z,7.90
2018-06-02T00:43:50.238Z,7.93
2018-06-02T00:46:17.790Z,7.67
2018-06-02T00:48:45.322Z,8.07
2018-06-02T00:51:12.918Z,6.73
2018-06-02T00:53:40.485Z,7.63
2018-06-02T00:56:08.021Z,7.67
2018-06-02T00:58:35.586Z,7.37
2018-06-02T01:01:03.129Z,7.77
2018-06-02T01:03:30.691Z,8.00
2018-06-02T01:05:58.287Z,7.90
2018-06-02T01:08:25.863Z,8.03
2018-06-02T01:10:53.432Z,8.33
2018-06-02T01:13:20.990Z,8.20
2018-06-02T01:15:48.583Z,8.13
2018-06-02T01:18:16.139Z,8.47
2018-06-02T01:20:43.708Z,7.97
2018-06-02T01:23:11.246Z,7.73
2018-06-02T01:25:38.836Z,7.17
2018-06-02T01:28:06.396Z,8.10
2018-06-02T01:30:33.954Z,6.17
2018-06-02T01:33:01.498Z,6.50
2018-06-02T01:35:29.057Z,6.30
2018-06-02T01:37:56.582Z,6.40
2018-06-02T01:40:24.151Z,6.00
2018-06-02T01:42:51.665Z,5.77
2018-06-02T01:45:19.203Z,7.53
2018-06-02T01:47:46.817Z,6.93
2018-06-02T01:50:14.345Z,7.67
2018-06-02T01:52:41.926Z,6.63
2018-06-02T01:55:09.490Z,6.40
2018-06-02T01:57:37.026Z,7.07
2018-06-02T02:00:04.541Z,6.57
2018-06-02T02:02:32.093Z,6.60
2018-06-02T02:04:59.600Z,7.07
2018-06-02T02:07:27.165Z,6.60
2018-06-02T02:09:54.665Z,6.77
2018-06-02T02:12:22.206Z,6.77
2018-06-02T02:14:49.717Z,6.60
2018-06-02T02:17:17.324Z,6.40
2018-06-02T02:19:44.828Z,7.10
2018-06-02T02:22:12.357Z,7.17
2018-06-02T02:24:39.866Z,7.67
2018-06-02T02:27:07.406Z,6.97
2018-06-02T02:29:34.937Z,7.33
2018-06-02T02:32:02.461Z,7.90
2018-06-02T02:34:30.027Z,7.87
2018-06-02T02:36:57.561Z,6.90
2018-06-02T02:39:25.063Z,7.77
2018-06-02T02:41:52.580Z,7.50
2018-06-02T02:44:20.093Z,7.53
2018-06-02T02:46:48.405Z,8.63
2018-06-02T02:49:15.946Z,7.40
2018-06-02T02:51:43.445Z,7.47
2018-06-02T02:54:10.987Z,8.00
2018-06-02T02:56:38.507Z,8.03
2018-06-02T02:59:06.038Z,8.97
2018-06-02T03:01:33.556Z,9.00
2018-06-02T03:04:01.107Z,8.70
2018-06-02T03:06:28.762Z,9.13
2018-06-02T03:08:56.297Z,9.07
2018-06-02T03:11:23.816Z,9.83
2018-06-02T03:13:51.363Z,10.03
2018-06-02T03:16:18.890Z,10.40
2018-06-02T03:18:46.469Z,10.80
2018-06-02T03:21:13.991Z,11.57
2018-06-02T03:23:41.531Z,10.33
2018-06-02T03:26:09.052Z,11.20
2018-06-02T03:28:36.617Z,10.50
2018-06-02T03:31:04.146Z,12.53
2018-06-02T03:33:31.687Z,11.13
2018-06-02T03:35:59.208Z,11.20
2018-06-02T03:38:26.750Z,10.87
2018-06-02T03:40:54.261Z,11.80
2018-06-02T03:43:21.778Z,12.27
2018-06-02T03:45:49.333Z,12.87
2018-06-02T03:48:16.854Z,12.30
2018-06-02T03:50:44.393Z,12.87
2018-06-02T03:53:11.910Z,12.70
2018-06-02T03:55:39.480Z,13.20
2018-06-02T03:58:06.990Z,12.73
2018-06-02T04:00:34.526Z,11.70
2018-06-02T04:03:02.062Z,12.57
2018-06-02T04:05:29.596Z,12.40
2018-06-02T04:07:57.114Z,12.57
2018-06-02T04:10:24.640Z,12.63
2018-06-02T04:12:52.161Z,12.67
2018-06-02T04:15:19.709Z,12.97
2018-06-02T04:17:47.228Z,12.80
2018-06-02T04:20:14.775Z,12.83
2018-06-02T04:22:42.310Z,12.77
2018-06-02T04:25:09.851Z,11.00
2018-06-02T04:27:37.356Z,10.57
2018-06-02T04:30:04.894Z,10.27
2018-06-02T04:32:32.421Z,9.53
2018-06-02T04:34:59.933Z,11.00
2018-06-02T04:37:27.472Z,10.20
2018-06-02T04:39:54.993Z,10.03
2018-06-02T04:42:22.525Z,9.67
2018-06-02T04:44:50.039Z,10.07
2018-06-02T04:47:17.577Z,10.67
2018-06-02T04:49:45.096Z,10.17
2018-06-02T04:52:12.638Z,9.13
2018-06-02T04:54:40.151Z,9.10
2018-06-02T04:57:07.692Z,8.70
2018-06-02T04:59:35.211Z,8.87
2018-06-02T05:02:02.732Z,7.90
2018-06-02T05:04:30.298Z,7.90
2018-06-02T05:06:57.809Z,8.13
2018-06-02T05:09:25.341Z,8.07
2018-06-02T05:11:52.890Z,7.73
2018-06-02T05:14:20.404Z,7.60
2018-06-02T05:16:47.936Z,7.13
2018-06-02T05:19:15.445Z,7.90
2018-06-02T05:21:42.990Z,7.50
2018-06-02T05:24:10.513Z,7.47
2018-06-02T05:26:38.052Z,7.33
2018-06-02T05:29:05.588Z,7.73
2018-06-02T05:31:33.108Z,8.07
2018-06-02T05:34:00.658Z,7.10
2018-06-02T05:36:28.165Z,7.63
2018-06-02T05:38:55.681Z,7.93
2018-06-02T05:41:23.188Z,7.17
2018-06-02T05:43:50.725Z,7.83
2018-06-02T05:46:18.242Z,8.03
2018-06-02T05:48:45.801Z,8.23
2018-06-02T05:51:13.325Z,8.70
2018-06-02T05:53:40.844Z,7.90
2018-06-02T05:56:08.377Z,9.47
2018-06-02T05:58:35.903Z,8.87
2018-06-02T06:01:03.434Z,9.20
2018-06-02T06:03:30.990Z,9.53
2018-06-02T06:05:58.619Z,10.37
2018-06-02T06:08:26.163Z,10.13
2018-06-02T06:10:53.685Z,9.30
2018-06-02T06:13:21.228Z,10.50
2018-06-02T06:15:48.744Z,9.83
2018-06-02T06:18:16.284Z,10.30
2018-06-02T06:20:43.795Z,9.63
2018-06-02T06:23:11.364Z,9.47
2018-06-02T06:25:38.889Z,9.37
2018-06-02T06:28:06.412Z,8.83
2018-06-02T06:30:33.967Z,8.37
2018-06-02T06:33:01.595Z,7.93
2018-06-02T06:35:29.146Z,8.13
2018-06-02T06:37:56.706Z,7.87
2018-06-02T06:40:24.233Z,8.17
2018-06-02T06:42:51.753Z,7.93
2018-06-02T06:45:19.300Z,7.73
2018-06-02T06:47:46.807Z,8.40
2018-06-02T06:50:14.362Z,7.73
2018-06-02T06:52:42.031Z,7.53
2018-06-02T06:55:09.675Z,7.60
2018-06-02T06:57:37.248Z,7.20
2018-06-02T07:00:04.814Z,8.10
2018-06-02T07:02:32.525Z,7.30
2018-06-02T07:05:00.127Z,6.60
2018-06-02T07:07:27.668Z,6.33
2018-06-02T07:09:55.195Z,5.65
2018-06-02T07:12:22.729Z,5.87
2018-06-02T07:14:50.385Z,5.60
2018-06-02T07:17:17.997Z,5.30
2018-06-02T07:19:45.578Z,6.60
2018-06-02T07:22:13.186Z,5.00
2018-06-02T07:24:40.745Z,4.75
2018-06-02T07:27:08.328Z,4.72
2018-06-02T07:29:35.863Z,4.80
2018-06-02T07:32:03.413Z,4.87
2018-06-02T07:34:30.930Z,4.87
2018-06-02T07:36:58.544Z,4.80
2018-06-02T07:39:26.099Z,5.22
2018-06-02T07:41:53.728Z,4.30
2018-06-02T07:44:21.332Z,4.35
2018-06-02T07:46:48.896Z,4.75
2018-06-02T07:49:16.778Z,4.55
2018-06-02T07:51:44.989Z,3.92
2018-06-02T07:54:13.186Z,4.50
2018-06-02T07:56:40.760Z,3.55
2018-06-02T07:59:08.383Z,3.65
2018-06-02T08:01:35.961Z,3.28
2018-06-02T08:04:03.567Z,3.85
2018-06-02T08:06:31.801Z,3.40
2018-06-02T08:08:59.309Z,3.70
2018-06-02T08:11:26.880Z,2.42
2018-06-02T08:13:54.433Z,2.80
2018-06-02T08:16:22.042Z,3.00
2018-06-02T08:18:49.580Z,2.72
2018-06-02T08:21:17.115Z,3.00
2018-06-02T08:23:44.724Z,2.80
2018-06-02T08:26:12.280Z,2.67
2018-06-02T08:28:39.862Z,2.83
2018-06-02T08:31:07.421Z,2.95
2018-06-02T08:33:35.044Z,2.80
2018-06-02T08:36:02.568Z,3.03
2018-06-02T08:38:30.096Z,2.72
2018-06-02T08:40:57.625Z,2.60
2018-06-02T08:43:25.144Z,2.60
2018-06-02T08:45:52.706Z,2.45
2018-06-02T08:48:20.234Z,2.40
2018-06-02T08:50:47.757Z,2.50
2018-06-02T08:53:15.322Z,2.47
2018-06-02T08:55:42.853Z,2.25
2018-06-02T08:58:10.445Z,2.35
2018-06-02T09:00:37.958Z,1.98
2018-06-02T09:03:05.547Z,1.90
2018-06-02T09:05:33.221Z,2.42
2018-06-02T09:08:00.786Z,2.45
2018-06-02T09:10:28.345Z,1.85
2018-06-02T09:12:55.925Z,2.22
2018-06-02T09:15:23.521Z,2.17
2018-06-02T09:17:51.143Z,2.25
2018-06-02T09:20:18.766Z,2.42
2018-06-02T09:22:46.371Z,2.47
2018-06-02T09:25:13.933Z,2.20
2018-06-02T09:27:41.490Z,2.37
2018-06-02T09:30:09.104Z,2.60
2018-06-02T09:32:36.614Z,2.40
2018-06-02T09:35:04.192Z,2.53
2018-06-02T09:37:31.736Z,2.60
2018-06-02T09:39:59.345Z,2.55
2018-06-02T09:42:26.949Z,2.40
2018-06-02T09:44:54.526Z,2.33
2018-06-02T09:47:22.130Z,3.00
2018-06-02T09:49:49.677Z,2.77
2018-06-02T09:52:17.191Z,3.10
2018-06-02T09:54:44.744Z,2.80
2018-06-02T09:57:12.266Z,3.57
2018-06-02T09:59:39.933Z,2.77
2018-06-02T10:02:07.479Z,2.97
2018-06-02T10:04:35.162Z,3.30
2018-06-02T10:07:02.677Z,2.97
2018-06-02T10:09:30.213Z,3.20
2018-06-02T10:11:57.843Z,2.90
2018-06-02T10:14:25.354Z,2.90
2018-06-02T10:16:53.008Z,2.50
2018-06-02T10:19:20.635Z,2.70
2018-06-02T10:21:48.248Z,2.58
2018-06-02T10:24:15.782Z,2.47
2018-06-02T10:26:43.339Z,2.25
2018-06-02T10:29:10.853Z,2.25
2018-06-02T10:31:38.377Z,2.20
2018-06-02T10:34:05.885Z,1.90
2018-06-02T10:36:33.469Z,2.10
2018-06-02T10:39:00.997Z,2.00
2018-06-02T10:41:28.551Z,2.17
2018-06-02T10:43:56.072Z,1.92
2018-06-02T10:46:23.633Z,2.22
2018-06-02T10:48:51.153Z,2.62
2018-06-02T10:51:18.738Z,2.58
2018-06-02T10:53:46.236Z,2.22
2018-06-02T10:56:13.765Z,2.28
2018-06-02T10:58:41.262Z,2.20
2018-06-02T11:01:08.786Z,2.17
2018-06-02T11:03:36.319Z,1.95
2018-06-02T11:06:03.839Z,1.80
2018-06-02T11:08:31.384Z,1.90
2018-06-02T11:10:58.911Z,1.62
2018-06-02T11:13:26.437Z,1.92
2018-06-02T11:15:53.971Z,1.80
2018-06-02T11:18:21.590Z,1.67
2018-06-02T11:20:49.206Z,1.92
2018-06-02T11:23:16.734Z,1.87
2018-06-02T11:25:44.354Z,2.13
2018-06-02T11:28:12.044Z,1.80
2018-06-02T11:30:39.648Z,1.90
2018-06-02T11:33:07.194Z,1.70
2018-06-02T11:35:34.755Z,1.90
2018-06-02T11:38:02.299Z,1.63
2018-06-02T11:40:29.806Z,1.97
2018-06-02T11:42:57.383Z,2.00
2018-06-02T11:45:24.961Z,1.70
2018-06-02T11:47:52.497Z,1.70
2018-06-02T11:50:20.011Z,1.70
2018-06-02T11:52:47.550Z,1.90
2018-06-02T11:55:15.070Z,2.00
2018-06-02T11:57:42.628Z,2.03
2018-06-02T12:00:10.149Z,2.07
2018-06-02T12:02:37.655Z,1.80
2018-06-02T12:05:05.303Z,1.97
2018-06-02T12:07:32.821Z,2.00
2018-06-02T12:10:00.369Z,2.00
2018-06-02T12:12:27.955Z,2.00
2018-06-02T12:14:55.607Z,1.90
2018-06-02T12:17:23.151Z,2.00
2018-06-02T12:19:50.689Z,1.80
2018-06-02T12:22:18.229Z,1.90
2018-06-02T12:24:45.764Z,1.90
2018-06-02T12:27:13.277Z,2.10
2018-06-02T12:29:40.800Z,1.97
2018-06-02T12:32:08.333Z,1.80
2018-06-02T12:34:35.868Z,1.97
2018-06-02T12:37:03.394Z,1.73
2018-06-02T12:39:30.916Z,1.97
2018-06-02T12:41:58.622Z,2.00
2018-06-02T12:44:26.145Z,2.30
2018-06-02T12:46:53.668Z,2.50
2018-06-02T12:49:21.213Z,1.90
2018-06-02T12:51:48.722Z,2.00
2018-06-02T12:54:16.846Z,2.27
2018-06-02T12:56:44.386Z,1.60
2018-06-02T12:59:11.908Z,1.60
2018-06-02T13:01:39.451Z,2.23
2018-06-02T13:04:07.098Z,2.10
2018-06-02T13:06:35.010Z,2.07
2018-06-02T13:09:02.538Z,1.80
2018-06-02T13:11:30.222Z,1.90
2018-06-02T13:13:57.728Z,1.80
2018-06-02T13:16:25.262Z,2.20
2018-06-02T13:18:52.859Z,1.83
2018-06-02T13:21:20.408Z,1.93
2018-06-02T13:23:47.921Z,2.00
2018-06-02T13:26:15.446Z,2.10
2018-06-02T13:28:42.964Z,2.03
2018-06-02T13:31:10.513Z,2.30
2018-06-02T13:33:38.049Z,2.10
2018-06-02T13:36:05.581Z,1.70
2018-06-02T13:38:33.102Z,1.77
2018-06-02T13:41:00.642Z,1.80
2018-06-02T13:43:28.240Z,1.87
2018-06-02T13:45:55.783Z,1.87
2018-06-02T13:48:23.304Z,1.90
2018-06-02T13:50:50.920Z,1.90
2018-06-02T13:53:18.449Z,1.77
2018-06-02T13:55:45.979Z,1.90
2018-06-02T13:58:13.596Z,1.83
2018-06-02T14:00:41.188Z,1.83
2018-06-02T14:03:08.715Z,1.87
2018-06-02T14:05:36.220Z,1.90
2018-06-02T14:08:03.801Z,1.60
2018-06-02T14:10:31.328Z,1.70
2018-06-02T14:12:58.859Z,1.97
2018-06-02T14:15:26.377Z,1.90
2018-06-02T14:17:53.904Z,1.63
2018-06-02T14:20:21.419Z,2.10
2018-06-02T14:22:48.948Z,1.70
2018-06-02T14:25:16.473Z,1.90
2018-06-02T14:27:43.993Z,1.77
2018-06-02T14:30:11.509Z,2.03
2018-06-02T14:32:39.042Z,1.87
2018-06-02T14:35:06.554Z,1.80
2018-06-02T14:37:34.109Z,1.83
2018-06-02T14:40:01.618Z,1.80
2018-06-02T14:42:29.160Z,1.83
2018-06-02T14:44:56.769Z,1.80
2018-06-02T14:47:24.291Z,1.60
2018-06-02T14:49:51.840Z,1.97
2018-06-02T14:52:19.354Z,1.77
2018-06-02T14:54:46.891Z,2.27
2018-06-02T14:57:14.424Z,1.73
2018-06-02T14:59:41.956Z,1.80
2018-06-02T15:02:09.474Z,1.87
2018-06-02T15:04:37.010Z,1.90
2018-06-02T15:07:04.517Z,2.13
2018-06-02T15:09:32.712Z,2.27
2018-06-02T15:12:00.275Z,1.90
2018-06-02T15:14:27.830Z,1.80
2018-06-02T15:16:55.378Z,1.90
2018-06-02T15:19:22.911Z,1.70
2018-06-02T15:21:50.447Z,1.80
2018-06-02T15:24:17.982Z,1.87
2018-06-02T15:26:45.498Z,1.80
2018-06-02T15:29:13.023Z,2.00
2018-06-02T15:31:40.538Z,1.90
2018-06-02T15:34:08.070Z,1.80
2018-06-02T15:36:35.628Z,1.93
2018-06-02T15:39:03.146Z,1.83
2018-06-02T15:41:30.653Z,2.20
2018-06-02T15:43:58.208Z,2.00
2018-06-02T15:46:25.744Z,2.20
2018-06-02T15:48:53.265Z,2.13
2018-06-02T15:51:20.801Z,2.10
2018-06-02T15:53:48.380Z,2.13
2018-06-02T15:56:15.912Z,1.77
2018-06-02T15:58:43.437Z,2.10
2018-06-02T16:01:10.957Z,2.00
2018-06-02T16:03:38.466Z,1.70
2018-06-02T16:06:05.999Z,1.90
2018-06-02T16:08:33.553Z,2.10
2018-06-02T16:11:01.092Z,2.33
2018-06-02T16:13:28.620Z,1.90
2018-06-02T16:15:56.156Z,2.10
2018-06-02T16:18:23.659Z,1.80
2018-06-02T16:20:51.181Z,2.10
2018-06-02T16:23:18.691Z,2.30
2018-06-02T16:25:46.271Z,1.80
2018-06-02T16:28:13.778Z,2.10
2018-06-02T16:30:41.309Z,2.30
2018-06-02T16:33:08.817Z,2.17
2018-06-02T16:35:36.355Z,2.30
2018-06-02T16:38:03.874Z,2.40
2018-06-02T16:40:31.393Z,2.57
2018-06-02T16:42:58.939Z,2.40
2018-06-02T16:45:26.452Z,1.93
2018-06-02T16:47:53.981Z,2.50
2018-06-02T16:50:21.493Z,2.07
2018-06-02T16:52:49.034Z,2.03
2018-06-02T16:55:16.576Z,2.20
2018-06-02T16:57:44.118Z,2.40
2018-06-02T17:00:11.622Z,3.50
2018-06-02T17:02:39.161Z,2.47
2018-06-02T17:05:06.745Z,1.90
2018-06-02T17:07:34.314Z,2.20
2018-06-02T17:10:01.824Z,2.40
2018-06-02T17:12:29.387Z,2.10
2018-06-02T17:14:56.907Z,1.87
2018-06-02T17:17:24.438Z,1.80
2018-06-02T17:19:51.982Z,1.90
2018-06-02T17:22:19.510Z,2.03
2018-06-02T17:24:47.045Z,2.10
2018-06-02T17:27:14.593Z,2.43
2018-06-02T17:29:42.097Z,2.20
2018-06-02T17:32:09.698Z,2.20
2018-06-02T17:34:37.254Z,2.23
2018-06-02T17:37:04.817Z,2.27
2018-06-02T17:39:32.370Z,2.23
2018-06-02T17:41:59.892Z,2.20
2018-06-02T17:44:27.414Z,2.20
2018-06-02T17:46:54.925Z,2.23
2018-06-02T17:49:22.494Z,2.30
2018-06-02T17:51:50.046Z,2.10
2018-06-02T17:54:17.568Z,2.47
2018-06-02T17:56:45.086Z,2.27
2018-06-02T17:59:12.696Z,2.60
2018-06-02T18:01:40.215Z,2.50
2018-06-02T18:04:07.766Z,2.60
2018-06-02T18:06:35.369Z,2.30
2018-06-02T18:09:02.892Z,2.43
2018-06-02T18:11:30.402Z,2.57
2018-06-02T18:13:57.931Z,2.40
2018-06-02T18:16:25.434Z,2.33
2018-06-02T18:18:53.026Z,2.27
2018-06-02T18:21:20.550Z,2.50
2018-06-02T18:23:48.085Z,2.60
2018-06-02T18:26:15.614Z,2.20
2018-06-02T18:28:43.123Z,2.07
2018-06-02T18:31:10.660Z,2.20
2018-06-02T18:33:38.275Z,2.37
2018-06-02T18:36:05.888Z,2.37
2018-06-02T18:38:33.486Z,2.80
2018-06-02T18:41:01.045Z,2.40
2018-06-02T18:43:28.601Z,2.37
2018-06-02T18:45:56.172Z,2.40
2018-06-02T18:48:23.750Z,2.40
2018-06-02T18:50:51.275Z,2.40
2018-06-02T18:53:18.809Z,2.53
2018-06-02T18:55:46.360Z,2.47
2018-06-02T18:58:14.078Z,2.80
2018-06-02T19:00:41.684Z,2.80
2018-06-02T19:03:09.212Z,2.43
2018-06-02T19:05:36.793Z,2.80
2018-06-02T19:08:04.473Z,3.07
2018-06-02T19:10:32.011Z,2.80
2018-06-02T19:12:59.622Z,2.63
2018-06-02T19:15:27.252Z,2.80
2018-06-02T19:17:54.742Z,3.23
2018-06-02T19:20:22.282Z,2.80
2018-06-02T19:22:49.859Z,2.80
2018-06-02T19:25:17.529Z,2.67
2018-06-02T19:27:45.098Z,3.07
2018-06-02T19:30:12.630Z,2.87
2018-06-02T19:32:40.389Z,3.47
2018-06-02T19:35:08.034Z,3.40
2018-06-02T19:37:35.597Z,3.97
2018-06-02T19:40:03.227Z,3.63
2018-06-02T19:42:30.885Z,3.27
2018-06-02T19:44:58.406Z,3.33
2018-06-02T19:47:25.936Z,3.33
2018-06-02T19:49:53.448Z,3.30
2018-06-02T19:52:21.002Z,3.47
2018-06-02T19:54:48.527Z,3.73
2018-06-02T19:57:16.145Z,3.30
2018-06-02T19:59:43.685Z,3.40
2018-06-02T20:02:11.217Z,3.50
2018-06-02T20:04:38.731Z,3.50
2018-06-02T20:07:06.249Z,3.53
2018-06-02T20:09:33.774Z,3.27
2018-06-02T20:12:01.312Z,3.80
2018-06-02T20:14:28.843Z,3.70
2018-06-02T20:16:56.442Z,3.93
2018-06-02T20:19:24.002Z,4.40
2018-06-02T20:21:51.556Z,3.97
2018-06-02T20:24:19.088Z,4.20
2018-06-02T20:26:46.619Z,4.83
2018-06-02T20:29:14.158Z,4.10
2018-06-02T20:31:41.661Z,5.23
2018-06-02T20:34:09.193Z,4.90
2018-06-02T20:36:36.707Z,4.37
2018-06-02T20:39:04.236Z,4.40
2018-06-02T20:41:31.746Z,4.90
2018-06-02T20:43:59.289Z,4.93
2018-06-02T20:46:26.807Z,4.57
2018-06-02T20:48:54.363Z,4.90
2018-06-02T20:51:21.869Z,5.07
2018-06-02T20:53:49.456Z,4.60
2018-06-02T20:56:16.981Z,4.30
2018-06-02T20:58:44.518Z,4.20
2018-06-02T21:01:12.054Z,4.90
2018-06-02T21:03:39.631Z,4.93
2018-06-02T21:06:07.142Z,4.63
2018-06-02T21:08:34.698Z,4.63
2018-06-02T21:11:02.251Z,4.70
2018-06-02T21:13:29.798Z,5.23
2018-06-02T21:15:57.320Z,5.27
2018-06-02T21:18:54.696Z,5.37
2018-06-02T21:21:22.213Z,4.87
2018-06-02T21:23:49.651Z,5.27
2018-06-02T21:26:17.042Z,4.60
2018-06-02T21:28:44.521Z,4.73
2018-06-02T21:31:12.003Z,5.00
2018-06-02T21:33:39.422Z,5.40
2018-06-02T21:36:06.881Z,5.23
2018-06-02T21:38:34.508Z,5.17
2018-06-02T21:41:02.113Z,4.80
2018-06-02T21:43:29.551Z,5.00
2018-06-02T21:45:57.468Z,5.40
2018-06-02T21:48:25.224Z,4.90
2018-06-02T21:50:52.716Z,5.63
2018-06-02T21:53:20.427Z,4.80
2018-06-02T21:55:47.864Z,5.13
2018-06-02T21:58:15.372Z,5.73
2018-06-02T22:00:43.018Z,13.07
2018-06-02T22:03:10.746Z,7.73
2018-06-02T22:05:38.483Z,6.50
2018-06-02T22:08:06.094Z,7.63
2018-06-02T22:10:33.618Z,7.30
2018-06-02T22:13:01.106Z,7.00
2018-06-02T22:15:28.755Z,7.57
2018-06-02T22:17:56.427Z,6.90
2018-06-02T22:20:23.975Z,6.40
2018-06-02T22:22:51.498Z,6.50
2018-06-02T22:25:19.084Z,7.03
2018-06-02T22:27:46.643Z,6.57
2018-06-02T22:30:14.555Z,6.77
2018-06-02T22:32:42.062Z,6.60
2018-06-02T22:35:09.519Z,6.47
2018-06-02T22:37:37.170Z,6.73
2018-06-02T22:40:04.921Z,7.00
2018-06-02T22:42:32.545Z,7.07
2018-06-02T22:45:00.131Z,6.80
2018-06-02T22:47:27.648Z,6.17
2018-06-02T22:49:55.144Z,6.07
2018-06-02T22:52:22.858Z,5.93
2018-06-02T22:54:50.323Z,6.50
2018-06-02T22:57:17.961Z,7.30
2018-06-02T22:59:45.552Z,7.50
2018-06-02T23:02:13.101Z,6.70
2018-06-02T23:04:40.715Z,6.90
2018-06-02T23:07:08.319Z,6.50
2018-06-02T23:09:35.899Z,7.63
2018-06-02T23:12:03.515Z,7.33
2018-06-02T23:14:31.076Z,7.53
2018-06-02T23:16:58.624Z,7.57
2018-06-02T23:19:26.271Z,7.57
2018-06-02T23:21:53.820Z,8.47
2018-06-02T23:24:21.449Z,8.53
2018-06-02T23:26:48.962Z,8.70
2018-06-02T23:29:16.945Z,9.77
2018-06-02T23:31:44.457Z,9.93
2018-06-02T23:34:12.108Z,9.40
2018-06-02T23:36:39.643Z,9.60
2018-06-02T23:39:07.251Z,8.57
2018-06-02T23:41:34.846Z,8.77
2018-06-02T23:44:02.479Z,8.60
2018-06-02T23:46:30.007Z,9.90
2018-06-02T23:48:58.370Z,10.67
2018-06-02T23:51:25.963Z,8.67
2018-06-02T23:53:53.494Z,9.63
2018-06-02T23:56:21.112Z,10.33
2018-06-02T23:58:48.599Z,9.23
